• Join FlightAware (Why Join?)
  • Login
  • US Flag 
09:39AM EDT


 

Airport Tracker/Info


-or-


 

Live Flight TrackerFlight Track Log ✈ SWA3678 ✈ 04-May-2013 ✈ KBWI - KALB

Flight Track Log - Related Links

Times and Time Zones

All times are in EDT time to prevent confusion due to time zone crossing. See the SWA3678 flight status page for this flight to view local times or setup timezone preferences in your user account.

Time Position Orientation Groundspeed Altitude Reporting Facility
EDT Latitude Longitude Course Direction KTS MPH feet Rate Location/Type
11:41AM 39.0967 -76.6133 149° Southeast 177 204 5,100  Level Washington Center
11:42AM 39.0428 -76.5697 148° Southeast 206 237 8,000 3,120 Climbing Washington Center
11:43AM 39.0036 -76.4972 125° Southeast 229 264 11,400 2,940 Climbing Washington Center
11:44AM 39.0378 -76.3961 66° East 223 257 13,800 3,000 Climbing Washington Center
11:45AM 39.0697 -76.2761 71° East 263 303 17,300 3,060 Climbing Washington Center
11:46AM 39.0994 -76.1828 68° East 311 358 20,000 2,700 Climbing Washington Center
11:47AM 39.1417 -76.0547 67° East 337 388 22,800 1,500 Climbing Washington Center
11:48AM 39.1756 -75.9289 71° East 352 405 23,100 1,200 Climbing Washington Center
11:49AM 39.2361 -75.8247 53° Northeast 357 411 25,200 1,440 Climbing Washington Center
11:50AM 39.3114 -75.7283 45° Northeast 363 418 26,000 360 Climbing Washington Center
11:51AM 39.3844 -75.6292 46° Northeast 368 423 26,000  Level Washington Center
11:52AM 39.4594 -75.5350 44° Northeast 368 423 26,000 840 Level Washington Center
11:53AM 39.5364 -75.4356 45° Northeast 373 429 27,700 1,500 Climbing Washington Center
11:54AM 39.6153 -75.3331 45° Northeast 386 444 29,000 360 Climbing Washington Center
11:56AM 39.8258 -75.0336 47° Northeast 429 494 29,000  Level New York Center
11:57AM 39.9072 -74.9194 47° Northeast 435 501 29,000  Level New York Center
11:58AM 39.9986 -74.8083 43° Northeast 440 506 29,000  Level New York Center
11:59AM 40.0897 -74.7050 41° Northeast 429 494 29,000  Level New York Center
12:00PM 40.1764 -74.5986 43° Northeast 429 494 29,000  Level New York Center
12:01PM 40.2569 -74.4997 43° Northeast 429 494 29,000  Level New York Center
12:02PM 40.3478 -74.3903 43° Northeast 429 494 29,000 -480 Level New York Center
12:03PM 40.4386 -74.2833 42° Northeast 429 494 28,100 -960 Descending New York Center
12:04PM 40.5269 -74.1786 42° Northeast 428 493 27,100 -1,080 Descending New York Center
12:07PM 40.7336 -73.9356 42° Northeast 402 463 24,600 -900 Descending Boston Center
12:08PM 40.8142 -73.8386 42° Northeast 395 455 24,000 -300 Descending Boston Center
12:09PM 40.8944 -73.7417 42° Northeast 395 455 24,000 -300 Level Boston Center
12:10PM 40.9747 -73.6525 40° Northeast 390 449 23,400 -540 Descending Boston Center
12:11PM 41.0631 -73.5797 32° Northeast 380 437 23,000 -600 Descending Boston Center
12:12PM 41.1450 -73.5067 34° Northeast 367 422 22,300 -900 Descending Boston Center
12:13PM 41.2369 -73.4642 19° North 343 395 21,200 -1,080 Descending Boston Center
12:14PM 41.3392 -73.4742 356° North 343 395 20,200 -1,020 Descending Boston Center
12:15PM 41.4411 -73.4786 358° North 349 402 19,200 -960 Descending Boston Center
12:16PM 41.5389 -73.4883 356° North 349 402 18,300 -900 Descending Boston Center
12:17PM 41.6494 -73.4931 358° North 354 407 17,500 -900 Descending Boston Center
12:18PM 41.7411 -73.5028 355° North 359 413 16,500 -780 Descending Boston Center
12:19PM 41.8514 -73.5103 357° North 364 419 16,000 -1,080 Descending Boston Center
12:20PM 41.9556 -73.5178 357° North 362 417 14,400 -1,860 Descending Boston Center
12:20PM 42.0181 -73.5186 359° North 366 421 13,000 -2,340 Descending Boston Center
12:21PM 42.0533 -73.5250 352° North 362 417 12,100 -2,400 Descending Boston Center
12:21PM 42.1033 -73.5258 359° North 363 418 11,100 -1,140 Descending Boston Center
12:22PM 42.1514 -73.5211 North 362 417 11,000  Descending Boston Center
12:22PM 42.1953 -73.5133 North 324 373 11,100  Climbing Boston Center
12:23PM 42.2411 -73.5225 352° North 343 395 11,000 -600 Descending Boston Center
12:23PM 42.2761 -73.5428 337° Northwest 301 346 10,500 -1,740 Descending Boston Center
12:24PM 42.3156 -73.5744 329° Northwest 302 348 9,300 -2,040 Descending Boston Center
12:24PM 42.3486 -73.6003 330° Northwest 296 341 8,500 -2,040 Descending Boston Center
12:25PM 42.3900 -73.6208 340° North 297 342 7,300 -1,920 Descending Boston Center
12:26PM 42.4500 -73.6611 334° Northwest 278 320 5,600 -1,740 Descending Boston Center
12:26PM 42.4978 -73.6931 334° Northwest 277 319 4,700 -1,200 Descending Boston Center
12:27PM 42.5267 -73.7136 332° Northwest 272 313 4,400 -540 Descending Boston Center
12:27PM 42.5556 -73.7339 333° Northwest 233 268 4,200 -900 Descending Boston Center
12:28PM 42.5742 -73.7456 335° Northwest 238 274 3,500 -1,320 Descending Boston Center
12:28PM 42.6094 -73.7744 329° Northwest 204 235 2,900 -900 Descending Boston Center
12:29PM 42.6217 -73.7803 341° North 222 255 2,600 -1,020 Descending Boston Center
12:29PM 42.6569 -73.8008 337° Northwest 184 212 1,900 -960 Descending Boston Center
12:30PM 42.6986 -73.8044 356° North 141 162 1,100 -840 Descending Boston Center